sensor_id;sensor_type;location;lat;lon;timestamp;pressure;altitude;pressure_sealevel;temperature;humidity
8717;BME280;4395;48.554;8.820;2023-02-11T00:01:28;97767.41;;;-0.99;100.00
8717;BME280;4395;48.554;8.820;2023-02-11T00:03:31;97792.03;;;-0.88;100.00
8717;BME280;4395;48.554;8.820;2023-02-11T00:05:34;97725.94;;;-1.27;100.00
8717;BME280;4395;48.554;8.820;2023-02-11T00:07:38;97788.69;;;-0.90;100.00
8717;BME280;4395;48.554;8.820;2023-02-11T00:09:41;97778.66;;;-0.97;100.00
8717;BME280;4395;48.554;8.820;2023-02-11T00:11:44;97789.19;;;-1.06;100.00
8717;BME280;4395;48.554;8.820;2023-02-11T00:13:47;97780.56;;;-1.08;100.00
8717;BME280;4395;48.554;8.820;2023-02-11T00:15:50;97780.72;;;-1.10;100.00
8717;BME280;4395;48.554;8.820;2023-02-11T00:17:53;97778.63;;;-1.06;100.00
8717;BME280;4395;48.554;8.820;2023-02-11T00:19:56;97770.31;;;-1.02;100.00
8717;BME280;4395;48.554;8.820;2023-02-11T00:21:58;97777.53;;;-1.04;100.00
8717;BME280;4395;48.554;8.820;2023-02-11T00:24:03;97776.56;;;-1.03;100.00
8717;BME280;4395;48.554;8.820;2023-02-11T00:26:11;97812.81;;;-1.05;100.00
8717;BME280;4395;48.554;8.820;2023-02-11T00:28:16;97782.66;;;-1.12;100.00
8717;BME280;4395;48.554;8.820;2023-02-11T00:30:19;97746.91;;;-1.25;100.00
8717;BME280;4395;48.554;8.820;2023-02-11T00:32:21;97778.63;;;-1.06;100.00
8717;BME280;4395;48.554;8.820;2023-02-11T00:34:24;97776.13;;;-1.08;100.00
8717;BME280;4395;48.554;8.820;2023-02-11T00:36:28;97735.06;;;-1.41;100.00
8717;BME280;4395;48.554;8.820;2023-02-11T00:38:31;97783.31;;;-1.19;100.00
8717;BME280;4395;48.554;8.820;2023-02-11T00:40:35;97709.34;;;-1.79;100.00
8717;BME280;4395;48.554;8.820;2023-02-11T00:42:38;97786.56;;;-1.37;100.00
8717;BME280;4395;48.554;8.820;2023-02-11T00:44:41;97649.38;;;-2.17;100.00
8717;BME280;4395;48.554;8.820;2023-02-11T00:46:44;97779.31;;;-1.44;100.00
8717;BME280;4395;48.554;8.820;2023-02-11T00:48:47;97775.84;;;-1.45;100.00
8717;BME280;4395;48.554;8.820;2023-02-11T00:50:50;97776.25;;;-1.49;100.00
8717;BME280;4395;48.554;8.820;2023-02-11T00:52:52;97720.69;;;-1.88;100.00
8717;BME280;4395;48.554;8.820;2023-02-11T00:54:55;97767.59;;;-1.61;100.00
8717;BME280;4395;48.554;8.820;2023-02-11T00:56:59;97773.31;;;-1.56;100.00
8717;BME280;4395;48.554;8.820;2023-02-11T00:59:02;97760.94;;;-1.55;100.00
8717;BME280;4395;48.554;8.820;2023-02-11T01:01:05;97645.03;;;-2.28;100.00
8717;BME280;4395;48.554;8.820;2023-02-11T01:03:08;97760.69;;;-1.52;100.00
8717;BME280;4395;48.554;8.820;2023-02-11T01:05:11;97688.50;;;-2.12;100.00
8717;BME280;4395;48.554;8.820;2023-02-11T01:07:14;97763.47;;;-1.54;100.00
8717;BME280;4395;48.554;8.820;2023-02-11T01:09:17;97748.13;;;-1.70;100.00
8717;BME280;4395;48.554;8.820;2023-02-11T01:11:21;97771.25;;;-1.52;100.00
8717;BME280;4395;48.554;8.820;2023-02-11T01:13:26;97689.53;;;-2.04;100.00
8717;BME280;4395;48.554;8.820;2023-02-11T01:15:29;97756.72;;;-1.68;100.00
8717;BME280;4395;48.554;8.820;2023-02-11T01:17:32;97758.44;;;-1.57;100.00
8717;BME280;4395;48.554;8.820;2023-02-11T01:19:35;97761.22;;;-1.58;100.00
8717;BME280;4395;48.554;8.820;2023-02-11T01:21:40;97761.09;;;-1.57;100.00
8717;BME280;4395;48.554;8.820;2023-02-11T01:23:43;97694.94;;;-2.05;100.00
8717;BME280;4395;48.554;8.820;2023-02-11T01:25:46;97751.38;;;-1.56;100.00
8717;BME280;4395;48.554;8.820;2023-02-11T01:27:49;97757.31;;;-1.64;100.00
8717;BME280;4395;48.554;8.820;2023-02-11T01:29:53;97757.16;;;-1.63;100.00
8717;BME280;4395;48.554;8.820;2023-02-11T01:31:56;97731.16;;;-1.77;100.00
8717;BME280;4395;48.554;8.820;2023-02-11T01:33:59;97745.22;;;-1.67;100.00
8717;BME280;4395;48.554;8.820;2023-02-11T01:36:04;97689.13;;;-1.99;100.00
8717;BME280;4395;48.554;8.820;2023-02-11T01:38:14;97738.44;;;-1.59;100.00
8717;BME280;4395;48.554;8.820;2023-02-11T01:40:17;97740.25;;;-1.60;100.00
8717;BME280;4395;48.554;8.820;2023-02-11T01:42:22;97686.38;;;-1.98;100.00
8717;BME280;4395;48.554;8.820;2023-02-11T01:44:27;97654.97;;;-2.10;100.00
8717;BME280;4395;48.554;8.820;2023-02-11T01:46:34;97735.09;;;-1.62;100.00
8717;BME280;4395;48.554;8.820;2023-02-11T01:48:41;97666.44;;;-1.90;100.00
8717;BME280;4395;48.554;8.820;2023-02-11T01:50:48;97714.81;;;-1.71;100.00
8717;BME280;4395;48.554;8.820;2023-02-11T01:52:52;97719.81;;;-1.68;100.00
8717;BME280;4395;48.554;8.820;2023-02-11T01:55:17;97727.28;;;-1.73;100.00
8717;BME280;4395;48.554;8.820;2023-02-11T01:57:41;97722.53;;;-1.79;100.00
8717;BME280;4395;48.554;8.820;2023-02-11T01:59:49;97646.00;;;-2.29;100.00
8717;BME280;4395;48.554;8.820;2023-02-11T02:02:00;97719.72;;;-1.87;100.00
8717;BME280;4395;48.554;8.820;2023-02-11T02:04:05;97699.56;;;-1.98;100.00
8717;BME280;4395;48.554;8.820;2023-02-11T02:06:14;97725.25;;;-1.90;100.00
8717;BME280;4395;48.554;8.820;2023-02-11T02:08:22;97700.00;;;-1.92;100.00
8717;BME280;4395;48.554;8.820;2023-02-11T02:10:30;97705.56;;;-1.86;100.00
8717;BME280;4395;48.554;8.820;2023-02-11T02:12:35;97676.34;;;-2.04;100.00
8717;BME280;4395;48.554;8.820;2023-02-11T02:14:39;97697.94;;;-1.89;100.00
8717;BME280;4395;48.554;8.820;2023-02-11T02:16:43;97702.88;;;-1.96;100.00
8717;BME280;4395;48.554;8.820;2023-02-11T02:18:55;97699.16;;;-1.93;100.00
8717;BME280;4395;48.554;8.820;2023-02-11T02:21:29;97701.22;;;-1.97;100.00
8717;BME280;4395;48.554;8.820;2023-02-11T02:26:41;97679.69;;;-2.02;100.00
8717;BME280;4395;48.554;8.820;2023-02-11T02:29:16;97690.81;;;-1.98;100.00
8717;BME280;4395;48.554;8.820;2023-02-11T02:33:52;97693.38;;;-1.87;100.00
8717;BME280;4395;48.554;8.820;2023-02-11T02:36:05;97671.09;;;-2.04;100.00
8717;BME280;4395;48.554;8.820;2023-02-11T02:38:12;97683.09;;;-1.90;100.00
8717;BME280;4395;48.554;8.820;2023-02-11T02:40:20;97678.50;;;-1.88;100.00
8717;BME280;4395;48.554;8.820;2023-02-11T02:42:25;97618.28;;;-2.23;100.00
8717;BME280;4395;48.554;8.820;2023-02-11T02:44:28;97681.63;;;-1.73;100.00
8717;BME280;4395;48.554;8.820;2023-02-11T02:46:32;97556.31;;;-2.57;100.00
8717;BME280;4395;48.554;8.820;2023-02-11T02:48:35;97595.41;;;-2.22;100.00
8717;BME280;4395;48.554;8.820;2023-02-11T02:50:39;97680.13;;;-1.66;100.00
8717;BME280;4395;48.554;8.820;2023-02-11T02:52:49;97674.84;;;-1.66;100.00
8717;BME280;4395;48.554;8.820;2023-02-11T02:55:19;97683.88;;;-1.69;100.00
8717;BME280;4395;48.554;8.820;2023-02-11T02:57:30;97679.00;;;-1.73;100.00
8717;BME280;4395;48.554;8.820;2023-02-11T02:59:41;97672.34;;;-1.68;100.00
8717;BME280;4395;48.554;8.820;2023-02-11T03:01:55;97672.88;;;-1.74;100.00
8717;BME280;4395;48.554;8.820;2023-02-11T03:04:04;97672.31;;;-1.77;100.00
8717;BME280;4395;48.554;8.820;2023-02-11T03:06:22;97654.34;;;-1.93;100.00
8717;BME280;4395;48.554;8.820;2023-02-11T03:08:31;97630.09;;;-2.17;100.00
8717;BME280;4395;48.554;8.820;2023-02-11T03:10:38;97650.94;;;-2.14;100.00
8717;BME280;4395;48.554;8.820;2023-02-11T03:12:44;97665.28;;;-1.98;100.00
8717;BME280;4395;48.554;8.820;2023-02-11T03:14:48;97665.41;;;-1.99;100.00
8717;BME280;4395;48.554;8.820;2023-02-11T03:16:54;97670.00;;;-2.01;100.00
8717;BME280;4395;48.554;8.820;2023-02-11T03:19:02;97644.38;;;-2.20;100.00
8717;BME280;4395;48.554;8.820;2023-02-11T03:21:09;97639.25;;;-2.21;100.00
8717;BME280;4395;48.554;8.820;2023-02-11T03:23:17;97675.53;;;-2.04;100.00
8717;BME280;4395;48.554;8.820;2023-02-11T03:25:27;97670.56;;;-1.98;100.00
8717;BME280;4395;48.554;8.820;2023-02-11T03:27:34;97662.66;;;-1.98;100.00
8717;BME280;4395;48.554;8.820;2023-02-11T03:29:42;97658.34;;;-1.99;100.00
8717;BME280;4395;48.554;8.820;2023-02-11T03:31:53;97657.38;;;-1.98;100.00
8717;BME280;4395;48.554;8.820;2023-02-11T03:34:03;97657.78;;;-2.02;100.00
8717;BME280;4395;48.554;8.820;2023-02-11T03:36:11;97664.28;;;-2.06;100.00
8717;BME280;4395;48.554;8.820;2023-02-11T03:38:21;97659.72;;;-2.04;100.00
8717;BME280;4395;48.554;8.820;2023-02-11T03:40:28;97550.31;;;-3.22;100.00
8717;BME280;4395;48.554;8.820;2023-02-11T03:42:36;97652.03;;;-2.38;100.00
8717;BME280;4395;48.554;8.820;2023-02-11T03:44:45;97645.81;;;-2.37;100.00
8717;BME280;4395;48.554;8.820;2023-02-11T03:46:51;97450.31;;;-3.52;100.00
8717;BME280;4395;48.554;8.820;2023-02-11T03:48:59;97665.50;;;-2.10;100.00
8717;BME280;4395;48.554;8.820;2023-02-11T03:51:06;97681.31;;;-2.10;100.00
8717;BME280;4395;48.554;8.820;2023-02-11T03:53:12;97679.66;;;-2.11;100.00
8717;BME280;4395;48.554;8.820;2023-02-11T03:55:19;97688.38;;;-2.11;100.00
8717;BME280;4395;48.554;8.820;2023-02-11T03:57:22;97693.78;;;-2.12;100.00
8717;BME280;4395;48.554;8.820;2023-02-11T03:59:25;97691.72;;;-2.09;100.00
8717;BME280;4395;48.554;8.820;2023-02-11T04:01:28;97674.19;;;-2.19;100.00
8717;BME280;4395;48.554;8.820;2023-02-11T04:03:31;97682.91;;;-1.98;100.00
8717;BME280;4395;48.554;8.820;2023-02-11T04:05:34;97606.78;;;-2.52;100.00
8717;BME280;4395;48.554;8.820;2023-02-11T04:07:37;97647.66;;;-2.28;100.00
8717;BME280;4395;48.554;8.820;2023-02-11T04:09:40;97551.09;;;-2.89;100.00
8717;BME280;4395;48.554;8.820;2023-02-11T04:11:44;97652.16;;;-2.18;100.00
8717;BME280;4395;48.554;8.820;2023-02-11T04:13:47;97653.31;;;-2.11;100.00
8717;BME280;4395;48.554;8.820;2023-02-11T04:15:50;97655.56;;;-2.28;100.00
8717;BME280;4395;48.554;8.820;2023-02-11T04:17:53;97481.03;;;-3.32;100.00
8717;BME280;4395;48.554;8.820;2023-02-11T04:19:56;97647.66;;;-2.28;100.00
8717;BME280;4395;48.554;8.820;2023-02-11T04:21:59;97656.66;;;-2.51;100.00
8717;BME280;4395;48.554;8.820;2023-02-11T04:24:02;97651.03;;;-2.46;100.00
8717;BME280;4395;48.554;8.820;2023-02-11T04:26:05;97650.00;;;-2.55;100.00
8717;BME280;4395;48.554;8.820;2023-02-11T04:28:09;97657.25;;;-2.47;100.00
8717;BME280;4395;48.554;8.820;2023-02-11T04:30:12;97626.59;;;-2.69;100.00
8717;BME280;4395;48.554;8.820;2023-02-11T04:32:16;97629.34;;;-2.71;100.00
8717;BME280;4395;48.554;8.820;2023-02-11T04:34:18;97666.75;;;-2.35;100.00
8717;BME280;4395;48.554;8.820;2023-02-11T04:36:21;97559.44;;;-2.84;100.00
8717;BME280;4395;48.554;8.820;2023-02-11T04:38:24;97652.69;;;-2.45;100.00
8717;BME280;4395;48.554;8.820;2023-02-11T04:40:27;97650.44;;;-2.29;100.00
8717;BME280;4395;48.554;8.820;2023-02-11T04:42:30;97670.25;;;-2.04;100.00
8717;BME280;4395;48.554;8.820;2023-02-11T04:44:35;97657.91;;;-2.04;100.00
8717;BME280;4395;48.554;8.820;2023-02-11T04:46:37;97672.84;;;-1.83;100.00
8717;BME280;4395;48.554;8.820;2023-02-11T04:48:40;97686.78;;;-1.72;100.00
8717;BME280;4395;48.554;8.820;2023-02-11T04:50:43;97678.88;;;-1.72;100.00
8717;BME280;4395;48.554;8.820;2023-02-11T04:52:46;97671.81;;;-1.62;100.00
8717;BME280;4395;48.554;8.820;2023-02-11T04:54:48;97677.09;;;-1.62;100.00
8717;BME280;4395;48.554;8.820;2023-02-11T04:56:51;97683.78;;;-1.57;100.00
8717;BME280;4395;48.554;8.820;2023-02-11T04:58:54;97673.94;;;-1.55;100.00
8717;BME280;4395;48.554;8.820;2023-02-11T05:01:05;97669.09;;;-1.50;100.00
8717;BME280;4395;48.554;8.820;2023-02-11T05:03:09;97629.75;;;-1.73;100.00
8717;BME280;4395;48.554;8.820;2023-02-11T05:05:11;97678.69;;;-1.40;100.00
8717;BME280;4395;48.554;8.820;2023-02-11T05:07:14;97673.28;;;-1.38;100.00
8717;BME280;4395;48.554;8.820;2023-02-11T05:09:17;97635.06;;;-1.93;100.00
8717;BME280;4395;48.554;8.820;2023-02-11T05:11:23;97657.00;;;-1.53;100.00
8717;BME280;4395;48.554;8.820;2023-02-11T05:13:26;97671.34;;;-1.36;100.00
8717;BME280;4395;48.554;8.820;2023-02-11T05:15:30;97674.13;;;-1.28;100.00
8717;BME280;4395;48.554;8.820;2023-02-11T05:17:34;97665.53;;;-1.20;100.00
8717;BME280;4395;48.554;8.820;2023-02-11T05:19:37;97497.44;;;-2.16;100.00
8717;BME280;4395;48.554;8.820;2023-02-11T05:21:39;97678.88;;;-1.12;100.00
8717;BME280;4395;48.554;8.820;2023-02-11T05:24:02;97648.06;;;-1.12;100.00
8717;BME280;4395;48.554;8.820;2023-02-11T05:26:06;97659.44;;;-1.11;100.00
8717;BME280;4395;48.554;8.820;2023-02-11T05:28:09;97653.91;;;-1.08;100.00
8717;BME280;4395;48.554;8.820;2023-02-11T05:30:12;97657.66;;;-1.11;100.00
8717;BME280;4395;48.554;8.820;2023-02-11T05:32:15;97606.47;;;-1.48;100.00
8717;BME280;4395;48.554;8.820;2023-02-11T05:34:19;97652.75;;;-1.25;100.00
8717;BME280;4395;48.554;8.820;2023-02-11T05:36:22;97640.81;;;-1.29;100.00
8717;BME280;4395;48.554;8.820;2023-02-11T05:38:25;97576.34;;;-1.65;100.00
8717;BME280;4395;48.554;8.820;2023-02-11T05:40:27;97643.06;;;-1.15;100.00
8717;BME280;4395;48.554;8.820;2023-02-11T05:42:30;97624.16;;;-1.20;100.00
8717;BME280;4395;48.554;8.820;2023-02-11T05:44:33;97536.09;;;-1.57;100.00
8717;BME280;4395;48.554;8.820;2023-02-11T05:46:37;97571.81;;;-1.34;100.00
8717;BME280;4395;48.554;8.820;2023-02-11T05:48:39;97621.25;;;-0.98;100.00
8717;BME280;4395;48.554;8.820;2023-02-11T05:50:44;97611.38;;;-1.15;100.00
8717;BME280;4395;48.554;8.820;2023-02-11T05:52:47;97630.84;;;-1.06;100.00
8717;BME280;4395;48.554;8.820;2023-02-11T05:54:50;97631.91;;;-1.47;100.00
8717;BME280;4395;48.554;8.820;2023-02-11T05:56:53;97631.34;;;-1.41;100.00
8717;BME280;4395;48.554;8.820;2023-02-11T05:58:57;97588.31;;;-1.51;100.00
8717;BME280;4395;48.554;8.820;2023-02-11T06:01:00;97613.88;;;-1.23;100.00
8717;BME280;4395;48.554;8.820;2023-02-11T06:03:03;97594.72;;;-1.25;100.00
8717;BME280;4395;48.554;8.820;2023-02-11T06:05:06;97604.31;;;-1.24;100.00
8717;BME280;4395;48.554;8.820;2023-02-11T06:07:11;97515.28;;;-1.60;100.00
8717;BME280;4395;48.554;8.820;2023-02-11T06:09:13;97580.28;;;-1.02;100.00
8717;BME280;4395;48.554;8.820;2023-02-11T06:11:16;97549.59;;;-1.12;100.00
8717;BME280;4395;48.554;8.820;2023-02-11T06:13:20;97555.28;;;-1.07;100.00
8717;BME280;4395;48.554;8.820;2023-02-11T06:15:23;97590.00;;;-0.92;100.00
8717;BME280;4395;48.554;8.820;2023-02-11T06:17:26;97562.09;;;-1.05;100.00
8717;BME280;4395;48.554;8.820;2023-02-11T06:19:32;97595.97;;;-1.10;100.00
8717;BME280;4395;48.554;8.820;2023-02-11T06:21:35;97530.13;;;-1.59;100.00
8717;BME280;4395;48.554;8.820;2023-02-11T06:23:46;97594.41;;;-1.41;100.00
8717;BME280;4395;48.554;8.820;2023-02-11T06:25:49;97589.41;;;-1.44;100.00
8717;BME280;4395;48.554;8.820;2023-02-11T06:27:53;97593.88;;;-1.16;100.00
8717;BME280;4395;48.554;8.820;2023-02-11T06:29:56;97609.03;;;-1.18;100.00
8717;BME280;4395;48.554;8.820;2023-02-11T06:31:59;97629.69;;;-1.33;100.00
8717;BME280;4395;48.554;8.820;2023-02-11T06:34:02;97617.50;;;-0.95;100.00
8717;BME280;4395;48.554;8.820;2023-02-11T06:36:11;97628.91;;;-0.75;100.00
8717;BME280;4395;48.554;8.820;2023-02-11T06:38:14;97613.34;;;-0.78;100.00
8717;BME280;4395;48.554;8.820;2023-02-11T06:40:19;97642.91;;;-0.55;100.00
8717;BME280;4395;48.554;8.820;2023-02-11T06:42:22;97636.94;;;-0.48;100.00
8717;BME280;4395;48.554;8.820;2023-02-11T06:44:25;97630.09;;;-0.41;100.00
8717;BME280;4395;48.554;8.820;2023-02-11T06:46:28;97645.81;;;-0.29;100.00
8717;BME280;4395;48.554;8.820;2023-02-11T06:48:30;97644.41;;;-0.24;100.00
8717;BME280;4395;48.554;8.820;2023-02-11T06:50:33;97599.97;;;-0.57;100.00
8717;BME280;4395;48.554;8.820;2023-02-11T06:52:36;97654.13;;;-0.24;100.00
8717;BME280;4395;48.554;8.820;2023-02-11T06:54:39;97643.56;;;-0.24;100.00
8717;BME280;4395;48.554;8.820;2023-02-11T06:56:43;97639.94;;;-0.23;100.00
8717;BME280;4395;48.554;8.820;2023-02-11T06:58:46;97645.28;;;-0.43;100.00
8717;BME280;4395;48.554;8.820;2023-02-11T07:00:49;97627.06;;;-0.55;100.00
8717;BME280;4395;48.554;8.820;2023-02-11T07:02:52;97559.16;;;-0.82;100.00
8717;BME280;4395;48.554;8.820;2023-02-11T07:04:55;97619.81;;;-0.34;100.00
8717;BME280;4395;48.554;8.820;2023-02-11T07:06:58;97632.31;;;-0.26;100.00
8717;BME280;4395;48.554;8.820;2023-02-11T07:09:01;97557.19;;;-0.80;100.00
8717;BME280;4395;48.554;8.820;2023-02-11T07:11:09;97511.38;;;-0.99;100.00
8717;BME280;4395;48.554;8.820;2023-02-11T07:13:13;97647.72;;;-0.12;100.00
8717;BME280;4395;48.554;8.820;2023-02-11T07:15:16;97644.78;;;-0.09;100.00
8717;BME280;4395;48.554;8.820;2023-02-11T07:17:19;97645.47;;;-0.07;100.00
8717;BME280;4395;48.554;8.820;2023-02-11T07:19:22;97643.50;;;-0.05;100.00
8717;BME280;4395;48.554;8.820;2023-02-11T07:21:25;97642.97;;;-0.09;100.00
8717;BME280;4395;48.554;8.820;2023-02-11T07:23:27;97651.59;;;-0.07;100.00
8717;BME280;4395;48.554;8.820;2023-02-11T07:25:30;97501.91;;;-0.91;100.00
8717;BME280;4395;48.554;8.820;2023-02-11T07:27:33;97609.91;;;-0.22;100.00
8717;BME280;4395;48.554;8.820;2023-02-11T07:29:37;97648.78;;;0.14;100.00
8717;BME280;4395;48.554;8.820;2023-02-11T07:31:40;97585.16;;;-0.31;100.00
8717;BME280;4395;48.554;8.820;2023-02-11T07:33:43;97664.75;;;0.22;100.00
8717;BME280;4395;48.554;8.820;2023-02-11T07:35:47;97655.38;;;1.72;100.00
8717;BME280;4395;48.554;8.820;2023-02-11T07:37:50;97601.06;;;1.76;100.00
8717;BME280;4395;48.554;8.820;2023-02-11T07:39:53;97663.88;;;2.61;100.00
8717;BME280;4395;48.554;8.820;2023-02-11T07:41:55;97613.91;;;2.22;100.00
8717;BME280;4395;48.554;8.820;2023-02-11T07:44:01;97639.00;;;2.02;100.00
8717;BME280;4395;48.554;8.820;2023-02-11T07:46:08;97559.63;;;1.05;100.00
8717;BME280;4395;48.554;8.820;2023-02-11T07:48:11;97608.59;;;1.01;100.00
8717;BME280;4395;48.554;8.820;2023-02-11T07:50:15;97634.75;;;1.04;100.00
8717;BME280;4395;48.554;8.820;2023-02-11T07:52:18;97655.44;;;0.73;100.00
8717;BME280;4395;48.554;8.820;2023-02-11T07:54:21;97658.00;;;0.65;100.00
8717;BME280;4395;48.554;8.820;2023-02-11T07:56:24;97616.91;;;0.43;100.00
8717;BME280;4395;48.554;8.820;2023-02-11T07:58:27;97675.78;;;0.73;100.00
8717;BME280;4395;48.554;8.820;2023-02-11T08:00:30;97683.97;;;0.79;100.00
8717;BME280;4395;48.554;8.820;2023-02-11T08:02:34;97641.03;;;0.58;100.00
8717;BME280;4395;48.554;8.820;2023-02-11T08:04:37;97686.63;;;0.79;100.00
8717;BME280;4395;48.554;8.820;2023-02-11T08:06:41;97678.56;;;0.07;100.00
8717;BME280;4395;48.554;8.820;2023-02-11T08:08:44;97679.13;;;-0.09;100.00
8717;BME280;4395;48.554;8.820;2023-02-11T08:10:48;97667.00;;;0.17;100.00
8717;BME280;4395;48.554;8.820;2023-02-11T08:12:51;97675.06;;;0.53;100.00
8717;BME280;4395;48.554;8.820;2023-02-11T08:14:55;97681.22;;;0.71;100.00
8717;BME280;4395;48.554;8.820;2023-02-11T08:16:57;97672.34;;;0.90;100.00
8717;BME280;4395;48.554;8.820;2023-02-11T08:19:04;97662.53;;;1.00;100.00
8717;BME280;4395;48.554;8.820;2023-02-11T08:21:08;97661.31;;;1.12;100.00
8717;BME280;4395;48.554;8.820;2023-02-11T08:23:11;97658.22;;;1.17;100.00
8717;BME280;4395;48.554;8.820;2023-02-11T08:25:14;97645.28;;;1.14;100.00
8717;BME280;4395;48.554;8.820;2023-02-11T08:27:17;97643.75;;;1.29;100.00
8717;BME280;4395;48.554;8.820;2023-02-11T08:29:20;97652.69;;;1.46;100.00
8717;BME280;4395;48.554;8.820;2023-02-11T08:31:25;97633.31;;;1.45;100.00
8717;BME280;4395;48.554;8.820;2023-02-11T08:33:28;97648.28;;;1.54;100.00
8717;BME280;4395;48.554;8.820;2023-02-11T08:35:34;97637.06;;;1.60;100.00
8717;BME280;4395;48.554;8.820;2023-02-11T08:37:37;97643.59;;;1.48;100.00
8717;BME280;4395;48.554;8.820;2023-02-11T08:39:40;97633.28;;;1.63;100.00
8717;BME280;4395;48.554;8.820;2023-02-11T08:41:43;97499.19;;;1.01;100.00
8717;BME280;4395;48.554;8.820;2023-02-11T08:43:46;97641.81;;;1.75;100.00
8717;BME280;4395;48.554;8.820;2023-02-11T08:45:49;97633.66;;;1.94;100.00
8717;BME280;4395;48.554;8.820;2023-02-11T08:47:53;97635.06;;;1.80;100.00
8717;BME280;4395;48.554;8.820;2023-02-11T08:49:56;97599.09;;;1.78;100.00
8717;BME280;4395;48.554;8.820;2023-02-11T08:52:00;97632.66;;;2.21;100.00
8717;BME280;4395;48.554;8.820;2023-02-11T08:54:04;97647.56;;;2.56;100.00
8717;BME280;4395;48.554;8.820;2023-02-11T08:56:11;97649.16;;;2.75;100.00
8717;BME280;4395;48.554;8.820;2023-02-11T08:58:14;97644.22;;;2.88;100.00
8717;BME280;4395;48.554;8.820;2023-02-11T09:00:20;97650.41;;;2.97;100.00
8717;BME280;4395;48.554;8.820;2023-02-11T09:02:23;97658.03;;;3.00;100.00
8717;BME280;4395;48.554;8.820;2023-02-11T09:04:26;97649.06;;;3.01;100.00
8717;BME280;4395;48.554;8.820;2023-02-11T09:06:29;97592.56;;;2.74;100.00
8717;BME280;4395;48.554;8.820;2023-02-11T09:08:34;97644.78;;;3.16;100.00
8717;BME280;4395;48.554;8.820;2023-02-11T09:10:37;97645.13;;;3.29;100.00
8717;BME280;4395;48.554;8.820;2023-02-11T09:12:40;97638.66;;;3.32;100.00
8717;BME280;4395;48.554;8.820;2023-02-11T09:14:43;97645.81;;;3.39;100.00
8717;BME280;4395;48.554;8.820;2023-02-11T09:16:46;97637.00;;;3.47;100.00
8717;BME280;4395;48.554;8.820;2023-02-11T09:18:50;97581.00;;;3.08;100.00
8717;BME280;4395;48.554;8.820;2023-02-11T09:20:53;97655.13;;;3.68;100.00
8717;BME280;4395;48.554;8.820;2023-02-11T09:22:57;97650.47;;;3.86;100.00
8717;BME280;4395;48.554;8.820;2023-02-11T09:25:01;97647.78;;;4.02;100.00
8717;BME280;4395;48.554;8.820;2023-02-11T09:27:04;97645.94;;;4.11;99.14
8717;BME280;4395;48.554;8.820;2023-02-11T09:29:07;97646.25;;;4.16;99.30
8717;BME280;4395;48.554;8.820;2023-02-11T09:31:13;97643.41;;;4.26;99.12
8717;BME280;4395;48.554;8.820;2023-02-11T09:33:16;97597.56;;;4.07;98.46
8717;BME280;4395;48.554;8.820;2023-02-11T09:35:19;97642.34;;;4.51;97.74
8717;BME280;4395;48.554;8.820;2023-02-11T09:37:22;97572.91;;;4.13;97.45
8717;BME280;4395;48.554;8.820;2023-02-11T09:39:24;97639.44;;;4.69;97.20
8717;BME280;4395;48.554;8.820;2023-02-11T09:41:55;97645.81;;;4.91;95.97
8717;BME280;4395;48.554;8.820;2023-02-11T09:44:03;97644.72;;;5.08;94.51
8717;BME280;4395;48.554;8.820;2023-02-11T09:46:09;97637.09;;;5.05;93.09
8717;BME280;4395;48.554;8.820;2023-02-11T09:48:16;97638.44;;;5.01;92.71
8717;BME280;4395;48.554;8.820;2023-02-11T09:50:23;97653.72;;;5.07;93.88
8717;BME280;4395;48.554;8.820;2023-02-11T09:52:36;97643.34;;;5.20;91.46
8717;BME280;4395;48.554;8.820;2023-02-11T09:54:51;97606.47;;;5.01;90.94
8717;BME280;4395;48.554;8.820;2023-02-11T09:56:56;97650.59;;;5.57;91.23
8717;BME280;4395;48.554;8.820;2023-02-11T09:58:59;97640.91;;;5.79;87.88
8717;BME280;4395;48.554;8.820;2023-02-11T10:01:07;97629.59;;;5.77;87.36
8717;BME280;4395;48.554;8.820;2023-02-11T10:03:31;97633.34;;;5.68;87.43
8717;BME280;4395;48.554;8.820;2023-02-11T10:05:55;97638.03;;;5.66;88.72
8717;BME280;4395;48.554;8.820;2023-02-11T10:08:08;97601.88;;;5.40;88.71
8717;BME280;4395;48.554;8.820;2023-02-11T10:10:28;97640.88;;;5.64;88.02
8717;BME280;4395;48.554;8.820;2023-02-11T10:12:47;97633.03;;;5.63;87.94
8717;BME280;4395;48.554;8.820;2023-02-11T10:17:24;97635.03;;;5.84;87.55
8717;BME280;4395;48.554;8.820;2023-02-11T10:19:43;97637.78;;;5.98;86.32
8717;BME280;4395;48.554;8.820;2023-02-11T10:21:59;97645.69;;;6.06;84.66
8717;BME280;4395;48.554;8.820;2023-02-11T10:24:09;97641.84;;;6.24;83.40
8717;BME280;4395;48.554;8.820;2023-02-11T10:26:15;97639.00;;;6.40;83.54
8717;BME280;4395;48.554;8.820;2023-02-11T10:28:22;97651.72;;;6.53;82.44
8717;BME280;4395;48.554;8.820;2023-02-11T10:30:28;97642.31;;;6.71;81.85
8717;BME280;4395;48.554;8.820;2023-02-11T10:32:37;97646.97;;;6.99;80.07
8717;BME280;4395;48.554;8.820;2023-02-11T10:34:43;97636.69;;;7.17;79.64
8717;BME280;4395;48.554;8.820;2023-02-11T10:36:46;97616.25;;;7.09;78.34
8717;BME280;4395;48.554;8.820;2023-02-11T10:38:49;97603.34;;;7.13;77.74
8717;BME280;4395;48.554;8.820;2023-02-11T10:40:52;97613.31;;;7.04;78.55
8717;BME280;4395;48.554;8.820;2023-02-11T10:42:58;97624.56;;;7.00;79.32
8717;BME280;4395;48.554;8.820;2023-02-11T10:45:05;97633.88;;;7.04;80.88
8717;BME280;4395;48.554;8.820;2023-02-11T10:47:12;97606.50;;;7.02;80.72
8717;BME280;4395;48.554;8.820;2023-02-11T10:49:38;97628.19;;;7.50;80.09
8717;BME280;4395;48.554;8.820;2023-02-11T10:51:41;97625.91;;;7.68;77.29
8717;BME280;4395;48.554;8.820;2023-02-11T10:53:44;97622.69;;;7.79;76.07
8717;BME280;4395;48.554;8.820;2023-02-11T10:55:49;97559.78;;;7.40;77.66
8717;BME280;4395;48.554;8.820;2023-02-11T10:57:55;97617.00;;;8.10;74.35
8717;BME280;4395;48.554;8.820;2023-02-11T11:00:05;97614.47;;;8.30;73.47
8717;BME280;4395;48.554;8.820;2023-02-11T11:02:20;97615.06;;;8.60;71.43
8717;BME280;4395;48.554;8.820;2023-02-11T11:04:38;97605.06;;;8.82;69.41
8717;BME280;4395;48.554;8.820;2023-02-11T11:06:41;97589.00;;;8.82;69.84
8717;BME280;4395;48.554;8.820;2023-02-11T11:08:45;97597.50;;;8.92;68.66
8717;BME280;4395;48.554;8.820;2023-02-11T11:11:03;97553.31;;;8.33;70.25
8717;BME280;4395;48.554;8.820;2023-02-11T11:13:23;97588.06;;;9.09;67.77
8717;BME280;4395;48.554;8.820;2023-02-11T11:15:29;97591.63;;;9.29;65.49
8717;BME280;4395;48.554;8.820;2023-02-11T11:17:32;97588.09;;;9.22;64.44
8717;BME280;4395;48.554;8.820;2023-02-11T11:19:35;97583.78;;;9.34;64.28
8717;BME280;4395;48.554;8.820;2023-02-11T11:21:41;97576.31;;;9.23;63.07
8717;BME280;4395;48.554;8.820;2023-02-11T11:23:54;97589.09;;;8.26;68.42
8717;BME280;4395;48.554;8.820;2023-02-11T11:26:02;97564.25;;;8.38;69.37
8717;BME280;4395;48.554;8.820;2023-02-11T11:28:05;97586.53;;;8.87;67.85